createdAt,value
2019-01-16T00:00:04.563Z,927.8
2019-01-16T00:00:17.497Z,927.82
2019-01-16T00:00:30.446Z,927.8
2019-01-16T00:00:43.410Z,927.82
2019-01-16T00:00:56.349Z,927.8
2019-01-16T00:01:09.338Z,927.83
2019-01-16T00:01:22.294Z,927.84
2019-01-16T00:01:35.191Z,927.85
2019-01-16T00:01:48.164Z,927.86
2019-01-16T00:02:01.140Z,927.82
2019-01-16T00:02:14.128Z,927.83
2019-01-16T00:02:27.124Z,927.86
2019-01-16T00:02:40.071Z,927.83
2019-01-16T00:02:53.010Z,927.86
2019-01-16T00:03:05.935Z,927.85
2019-01-16T00:03:18.960Z,927.87
2019-01-16T00:03:32.663Z,927.87
2019-01-16T00:03:45.630Z,927.89
2019-01-16T00:03:58.612Z,927.9
2019-01-16T00:04:11.555Z,927.87
2019-01-16T00:04:24.552Z,927.88
2019-01-16T00:04:37.473Z,927.92
2019-01-16T00:04:50.468Z,927.9
2019-01-16T00:05:03.421Z,927.92
2019-01-16T00:05:16.338Z,927.92
2019-01-16T00:05:29.311Z,927.92
2019-01-16T00:05:42.244Z,927.93
2019-01-16T00:05:55.224Z,927.94
2019-01-16T00:06:08.138Z,927.94
2019-01-16T00:06:21.079Z,927.94
2019-01-16T00:06:34.013Z,927.96
2019-01-16T00:06:46.955Z,927.97
2019-01-16T00:06:59.818Z,927.98
2019-01-16T00:07:12.309Z,927.99
2019-01-16T00:07:25.240Z,928.02
2019-01-16T00:07:37.730Z,928.01
2019-01-16T00:07:50.688Z,928.03
2019-01-16T00:08:03.629Z,928.03
2019-01-16T00:08:16.567Z,928.02
2019-01-16T00:08:29.583Z,928.06
2019-01-16T00:08:42.557Z,928.08
2019-01-16T00:08:55.524Z,928.09
2019-01-16T00:09:08.498Z,928.08
2019-01-16T00:09:21.515Z,928.13
2019-01-16T00:09:34.475Z,928.11
2019-01-16T00:09:47.461Z,928.12
2019-01-16T00:10:00.479Z,928.15
2019-01-16T00:10:13.491Z,928.08
2019-01-16T00:10:26.455Z,928.13
2019-01-16T00:10:39.393Z,928.16
2019-01-16T00:10:52.368Z,928.15
2019-01-16T00:11:05.326Z,928.16
2019-01-16T00:11:18.238Z,928.21
2019-01-16T00:11:31.214Z,928.21
2019-01-16T00:11:44.200Z,928.21
2019-01-16T00:11:57.171Z,928.2
2019-01-16T00:12:10.152Z,928.19
2019-01-16T00:12:23.157Z,928.22
2019-01-16T00:12:36.165Z,928.27
2019-01-16T00:12:49.142Z,928.21
2019-01-16T00:13:02.096Z,928.23
2019-01-16T00:13:15.077Z,928.24
2019-01-16T00:13:28.110Z,928.26
2019-01-16T00:13:41.285Z,928.22
2019-01-16T00:13:54.611Z,928.28
2019-01-16T00:14:07.585Z,928.28
2019-01-16T00:14:20.590Z,928.26
2019-01-16T00:14:33.562Z,928.27
2019-01-16T00:14:46.571Z,928.28
2019-01-16T00:14:59.540Z,928.25
2019-01-16T00:15:12.063Z,928.32
2019-01-16T00:15:25.049Z,928.27
2019-01-16T00:15:38.074Z,928.31
2019-01-16T00:15:51.069Z,928.32
2019-01-16T00:16:03.586Z,928.31
2019-01-16T00:16:16.580Z,928.31
2019-01-16T00:16:29.514Z,928.35
2019-01-16T00:16:42.486Z,928.35
2019-01-16T00:16:55.497Z,928.31
2019-01-16T00:17:08.476Z,928.36
2019-01-16T00:17:20.978Z,928.38
2019-01-16T00:17:33.525Z,928.39
2019-01-16T00:17:46.473Z,928.38
2019-01-16T00:17:59.428Z,928.4
2019-01-16T00:18:18.187Z,928.42
2019-01-16T00:18:31.181Z,928.41
2019-01-16T00:18:44.115Z,928.41
2019-01-16T00:18:57.083Z,928.41
2019-01-16T00:19:10.063Z,928.42
2019-01-16T00:19:23.094Z,928.42
2019-01-16T00:19:36.071Z,928.43
2019-01-16T00:19:49.055Z,928.44
2019-01-16T00:20:01.958Z,928.44
2019-01-16T00:20:14.932Z,928.43
2019-01-16T00:20:27.928Z,928.47
2019-01-16T00:20:40.901Z,928.43
2019-01-16T00:20:53.905Z,928.46
2019-01-16T00:21:06.879Z,928.46
2019-01-16T00:21:19.904Z,928.49
2019-01-16T00:21:32.926Z,928.48
2019-01-16T00:21:45.415Z,928.49
2019-01-16T00:21:58.333Z,928.51
2019-01-16T00:22:11.354Z,928.43
2019-01-16T00:22:24.295Z,928.48
2019-01-16T00:22:37.308Z,928.48
2019-01-16T00:22:50.243Z,928.48
2019-01-16T00:23:03.278Z,928.49
2019-01-16T00:23:16.302Z,928.45
2019-01-16T00:23:29.316Z,928.47
2019-01-16T00:23:42.284Z,928.48
2019-01-16T00:23:55.368Z,928.46
2019-01-16T00:24:08.385Z,928.48
2019-01-16T00:24:21.365Z,928.48
2019-01-16T00:24:34.332Z,928.44
2019-01-16T00:24:47.235Z,928.44
2019-01-16T00:24:59.790Z,928.46
2019-01-16T00:25:12.756Z,928.46
2019-01-16T00:25:25.785Z,928.45
2019-01-16T00:25:38.764Z,928.43
2019-01-16T00:25:51.755Z,928.46
2019-01-16T00:26:04.667Z,928.46
2019-01-16T00:26:17.233Z,928.47
2019-01-16T00:26:30.225Z,928.46
2019-01-16T00:26:43.237Z,928.48
2019-01-16T00:26:56.272Z,928.49
2019-01-16T00:27:09.262Z,928.49
2019-01-16T00:27:22.260Z,928.49
2019-01-16T00:27:35.194Z,928.5
2019-01-16T00:27:48.185Z,928.5
2019-01-16T00:28:01.179Z,928.48
2019-01-16T00:28:14.240Z,928.48
2019-01-16T00:28:27.209Z,928.47
2019-01-16T00:28:40.191Z,928.49
2019-01-16T00:28:53.158Z,928.51
2019-01-16T00:29:06.178Z,928.5
2019-01-16T00:29:19.158Z,928.5
2019-01-16T00:29:32.141Z,928.49
2019-01-16T00:29:45.840Z,928.53
2019-01-16T00:29:58.815Z,928.5
2019-01-16T00:30:11.830Z,928.49
2019-01-16T00:30:24.785Z,928.5
2019-01-16T00:30:37.758Z,928.52
2019-01-16T00:30:50.798Z,928.52
2019-01-16T00:31:03.785Z,928.5
2019-01-16T00:31:16.793Z,928.53
2019-01-16T00:31:29.744Z,928.53
2019-01-16T00:31:42.712Z,928.51
2019-01-16T00:31:55.671Z,928.5
2019-01-16T00:32:08.190Z,928.55
2019-01-16T00:32:21.204Z,928.52
2019-01-16T00:32:34.196Z,928.52
2019-01-16T00:32:47.222Z,928.54
2019-01-16T00:33:00.161Z,928.53
2019-01-16T00:33:13.123Z,928.57
2019-01-16T00:33:26.040Z,928.54
2019-01-16T00:33:39.858Z,928.54
2019-01-16T00:33:52.811Z,928.55
2019-01-16T00:34:05.830Z,928.51
2019-01-16T00:34:18.782Z,928.53
2019-01-16T00:34:31.741Z,928.53
2019-01-16T00:34:44.706Z,928.54
2019-01-16T00:34:57.688Z,928.51
2019-01-16T00:35:10.646Z,928.52
2019-01-16T00:35:23.584Z,928.53
2019-01-16T00:35:36.548Z,928.5
2019-01-16T00:35:49.505Z,928.52
2019-01-16T00:36:02.421Z,928.56
2019-01-16T00:36:15.430Z,928.53
2019-01-16T00:36:28.364Z,928.49
2019-01-16T00:36:41.353Z,928.52
2019-01-16T00:36:54.367Z,928.53
2019-01-16T00:37:07.295Z,928.51
2019-01-16T00:37:20.272Z,928.52
2019-01-16T00:37:33.241Z,928.49
2019-01-16T00:37:46.237Z,928.5
2019-01-16T00:37:59.250Z,928.49
2019-01-16T00:38:12.205Z,928.47
2019-01-16T00:38:25.225Z,928.45
2019-01-16T00:38:38.242Z,928.48
2019-01-16T00:38:51.232Z,928.47
2019-01-16T00:39:04.229Z,928.49
2019-01-16T00:39:17.204Z,928.49
2019-01-16T00:39:30.129Z,928.48
2019-01-16T00:39:43.126Z,928.47
2019-01-16T00:39:56.084Z,928.45
2019-01-16T00:40:09.075Z,928.46
2019-01-16T00:40:22.033Z,928.49
2019-01-16T00:40:35.017Z,928.5
2019-01-16T00:40:48.036Z,928.49
2019-01-16T00:41:00.967Z,928.48
2019-01-16T00:41:13.906Z,928.48
2019-01-16T00:41:26.897Z,928.47
2019-01-16T00:41:39.879Z,928.49
2019-01-16T00:41:52.869Z,928.5
2019-01-16T00:42:05.860Z,928.46
2019-01-16T00:42:18.843Z,928.5
2019-01-16T00:42:31.808Z,928.45
2019-01-16T00:42:44.833Z,928.49
2019-01-16T00:42:57.770Z,928.5
2019-01-16T00:43:10.298Z,928.51
2019-01-16T00:43:23.253Z,928.47
2019-01-16T00:43:36.265Z,928.45
2019-01-16T00:43:49.449Z,928.46
2019-01-16T00:44:02.460Z,928.47
2019-01-16T00:44:15.448Z,928.41
2019-01-16T00:44:27.874Z,928.41
2019-01-16T00:44:40.860Z,928.44
2019-01-16T00:44:53.839Z,928.43
2019-01-16T00:45:06.853Z,928.45
2019-01-16T00:45:19.867Z,928.42
2019-01-16T00:45:32.814Z,928.42
2019-01-16T00:45:45.868Z,928.42
2019-01-16T00:45:58.781Z,928.42
2019-01-16T00:46:11.828Z,928.41
2019-01-16T00:46:24.807Z,928.44
2019-01-16T00:46:37.808Z,928.44
2019-01-16T00:46:50.826Z,928.45
2019-01-16T00:47:03.822Z,928.46
2019-01-16T00:47:16.795Z,928.42
2019-01-16T00:47:29.755Z,928.43
2019-01-16T00:47:42.757Z,928.46
2019-01-16T00:47:55.753Z,928.45
2019-01-16T00:48:08.729Z,928.45
2019-01-16T00:48:28.509Z,928.43
2019-01-16T00:48:41.882Z,928.46
2019-01-16T00:48:54.852Z,928.41
2019-01-16T00:49:07.796Z,928.49
2019-01-16T00:49:20.756Z,928.46
2019-01-16T00:49:33.786Z,928.46
2019-01-16T00:49:47.681Z,928.47
2019-01-16T00:50:00.647Z,928.48
2019-01-16T00:50:13.646Z,928.5
2019-01-16T00:50:26.639Z,928.51
2019-01-16T00:50:39.578Z,928.5
2019-01-16T00:50:52.535Z,928.53
2019-01-16T00:51:05.557Z,928.53
2019-01-16T00:51:18.549Z,928.52
2019-01-16T00:51:31.616Z,928.57
2019-01-16T00:51:44.604Z,928.52
2019-01-16T00:51:57.499Z,928.57
2019-01-16T00:52:10.468Z,928.52
2019-01-16T00:52:23.494Z,928.55
2019-01-16T00:52:36.416Z,928.55
2019-01-16T00:52:49.416Z,928.57
2019-01-16T00:53:02.409Z,928.58
2019-01-16T00:53:15.359Z,928.58
2019-01-16T00:53:28.309Z,928.58
2019-01-16T00:53:41.274Z,928.61
2019-01-16T00:53:54.297Z,928.64
2019-01-16T00:54:07.252Z,928.6
2019-01-16T00:54:20.217Z,928.61
2019-01-16T00:54:32.702Z,928.63
2019-01-16T00:54:45.689Z,928.65
2019-01-16T00:54:58.708Z,928.66
2019-01-16T00:55:11.624Z,928.64
2019-01-16T00:55:24.654Z,928.67
2019-01-16T00:55:37.689Z,928.69
2019-01-16T00:55:50.719Z,928.7
2019-01-16T00:56:03.742Z,928.7
2019-01-16T00:56:16.746Z,928.68
2019-01-16T00:56:29.717Z,928.68
2019-01-16T00:56:42.726Z,928.7
2019-01-16T00:56:55.727Z,928.72
2019-01-16T00:57:08.701Z,928.71
2019-01-16T00:57:21.654Z,928.7
2019-01-16T00:57:34.577Z,928.7
2019-01-16T00:57:47.584Z,928.74
2019-01-16T00:58:00.543Z,928.73
2019-01-16T00:58:13.534Z,928.72
2019-01-16T00:58:26.531Z,928.73
2019-01-16T00:58:38.990Z,928.69
2019-01-16T00:58:51.897Z,928.7
2019-01-16T00:59:05.045Z,928.73
2019-01-16T00:59:18.383Z,928.72
2019-01-16T00:59:31.666Z,928.73
2019-01-16T00:59:44.326Z,928.75
2019-01-16T00:59:56.840Z,928.76
2019-01-16T01:00:09.827Z,928.78
2019-01-16T01:00:22.820Z,928.76
2019-01-16T01:00:35.839Z,928.75
2019-01-16T01:00:48.786Z,928.75
2019-01-16T01:01:02.721Z,928.76
2019-01-16T01:01:15.732Z,928.76
2019-01-16T01:01:28.719Z,928.76
2019-01-16T01:01:41.754Z,928.76
2019-01-16T01:01:54.716Z,928.78
2019-01-16T01:02:07.678Z,928.8
2019-01-16T01:02:20.737Z,928.78
2019-01-16T01:02:33.766Z,928.78
2019-01-16T01:02:46.675Z,928.79
2019-01-16T01:02:59.658Z,928.77
2019-01-16T01:03:12.661Z,928.76
2019-01-16T01:03:25.682Z,928.72
2019-01-16T01:03:38.667Z,928.76
2019-01-16T01:03:52.384Z,928.73
2019-01-16T01:04:05.428Z,928.74
2019-01-16T01:04:18.420Z,928.74
2019-01-16T01:04:31.404Z,928.73
2019-01-16T01:04:44.375Z,928.76
2019-01-16T01:04:57.416Z,928.75
2019-01-16T01:05:10.411Z,928.74
2019-01-16T01:05:23.442Z,928.79
2019-01-16T01:05:36.402Z,928.78
2019-01-16T01:05:49.392Z,928.78
2019-01-16T01:06:02.364Z,928.77
2019-01-16T01:06:15.390Z,928.77
2019-01-16T01:06:28.384Z,928.77
2019-01-16T01:06:41.320Z,928.81
2019-01-16T01:06:54.353Z,928.83
2019-01-16T01:07:07.348Z,928.85
2019-01-16T01:07:20.367Z,928.83
2019-01-16T01:07:33.328Z,928.84
2019-01-16T01:07:46.290Z,928.85
2019-01-16T01:07:59.297Z,928.85
2019-01-16T01:08:12.275Z,928.86
2019-01-16T01:08:25.315Z,928.9
2019-01-16T01:08:38.298Z,928.89
2019-01-16T01:08:51.267Z,928.91
2019-01-16T01:09:04.165Z,928.92
2019-01-16T01:09:17.410Z,928.88
2019-01-16T01:09:29.887Z,928.93
2019-01-16T01:09:42.871Z,928.87
2019-01-16T01:09:55.819Z,928.95
2019-01-16T01:10:08.792Z,928.92
2019-01-16T01:10:21.769Z,928.9
2019-01-16T01:10:34.773Z,928.93
2019-01-16T01:10:47.785Z,928.9
2019-01-16T01:11:00.770Z,928.94
2019-01-16T01:11:13.844Z,928.93
2019-01-16T01:11:26.922Z,928.91
2019-01-16T01:11:39.930Z,928.9
2019-01-16T01:11:52.961Z,928.93
2019-01-16T01:12:05.940Z,928.91
2019-01-16T01:12:18.847Z,928.92
2019-01-16T01:12:31.791Z,928.93
2019-01-16T01:12:44.760Z,928.91
2019-01-16T01:12:57.752Z,928.91
2019-01-16T01:13:10.772Z,928.92
2019-01-16T01:13:23.701Z,928.91
2019-01-16T01:13:36.662Z,928.9
2019-01-16T01:13:49.655Z,928.89
2019-01-16T01:14:02.839Z,928.92
2019-01-16T01:14:15.798Z,928.89
2019-01-16T01:14:28.774Z,928.94
2019-01-16T01:14:41.748Z,928.88
2019-01-16T01:14:54.751Z,928.9
2019-01-16T01:15:07.768Z,928.9
2019-01-16T01:15:20.755Z,928.86
2019-01-16T01:15:33.741Z,928.89
2019-01-16T01:15:46.715Z,928.9
2019-01-16T01:15:59.647Z,928.89
2019-01-16T01:16:12.575Z,928.89
2019-01-16T01:16:25.586Z,928.91
2019-01-16T01:16:38.058Z,928.89
2019-01-16T01:16:51.036Z,928.9
2019-01-16T01:17:04.249Z,928.89
2019-01-16T01:17:17.195Z,928.92
2019-01-16T01:17:30.163Z,928.91
2019-01-16T01:17:43.139Z,928.93
2019-01-16T01:17:56.074Z,928.93
2019-01-16T01:18:09.023Z,928.92
2019-01-16T01:18:21.571Z,928.92
2019-01-16T01:18:45.045Z,928.94
2019-01-16T01:18:58.808Z,928.93
2019-01-16T01:19:11.771Z,928.94
2019-01-16T01:19:24.763Z,928.92
2019-01-16T01:19:37.672Z,928.91
2019-01-16T01:19:50.859Z,928.95
2019-01-16T01:20:03.849Z,928.93
2019-01-16T01:20:16.872Z,928.96
2019-01-16T01:20:29.909Z,928.99
2019-01-16T01:20:42.880Z,928.94
2019-01-16T01:20:55.828Z,928.97
2019-01-16T01:21:08.838Z,928.97
2019-01-16T01:21:21.830Z,928.97
2019-01-16T01:21:34.896Z,928.99
2019-01-16T01:21:47.892Z,928.98
2019-01-16T01:22:00.894Z,928.98
2019-01-16T01:22:14.083Z,928.97
2019-01-16T01:22:27.062Z,928.98
2019-01-16T01:22:40.048Z,928.99
2019-01-16T01:22:53.030Z,928.99
2019-01-16T01:23:05.553Z,929
2019-01-16T01:23:18.514Z,929
2019-01-16T01:23:31.535Z,929.02
2019-01-16T01:23:44.534Z,929
2019-01-16T01:23:59.101Z,929.03
2019-01-16T01:24:12.040Z,929.04
2019-01-16T01:24:25.013Z,929.02
2019-01-16T01:24:37.972Z,929.04
2019-01-16T01:24:50.925Z,929.03
2019-01-16T01:25:03.896Z,929.06
2019-01-16T01:25:16.931Z,929.07
2019-01-16T01:25:29.883Z,929.03
2019-01-16T01:25:42.884Z,929.05
2019-01-16T01:25:55.406Z,929.05
2019-01-16T01:26:08.403Z,929.03
2019-01-16T01:26:21.395Z,929.06
2019-01-16T01:26:34.348Z,929.06
2019-01-16T01:26:47.338Z,929.04
2019-01-16T01:27:00.287Z,929.08
2019-01-16T01:27:13.296Z,929.12
2019-01-16T01:27:25.819Z,929.1
2019-01-16T01:27:38.836Z,929.1
2019-01-16T01:27:51.765Z,929.11
2019-01-16T01:28:04.779Z,929.12
2019-01-16T01:28:17.782Z,929.1
2019-01-16T01:28:30.774Z,929.13
2019-01-16T01:28:43.822Z,929.15
2019-01-16T01:28:56.859Z,929.09
2019-01-16T01:29:09.840Z,929.12
2019-01-16T01:29:22.790Z,929.1
2019-01-16T01:29:35.751Z,929.1
2019-01-16T01:29:48.720Z,929.12
2019-01-16T01:30:01.706Z,929.13
2019-01-16T01:30:14.711Z,929.13
2019-01-16T01:30:27.808Z,929.12
2019-01-16T01:30:40.839Z,929.18
2019-01-16T01:30:53.827Z,929.13
2019-01-16T01:31:06.858Z,929.16
2019-01-16T01:31:19.877Z,929.14
2019-01-16T01:31:32.879Z,929.12
2019-01-16T01:31:45.815Z,929.16
2019-01-16T01:31:58.834Z,929.17
2019-01-16T01:32:11.818Z,929.17
2019-01-16T01:32:24.783Z,929.17
2019-01-16T01:32:37.770Z,929.17
2019-01-16T01:32:50.795Z,929.18
2019-01-16T01:33:03.772Z,929.19
2019-01-16T01:33:16.727Z,929.16
2019-01-16T01:33:29.751Z,929.14
2019-01-16T01:33:42.681Z,929.13
2019-01-16T01:33:55.705Z,929.15
2019-01-16T01:34:11.107Z,929.19
2019-01-16T01:34:25.594Z,929.14
2019-01-16T01:34:38.542Z,929.16
2019-01-16T01:34:51.550Z,929.16
2019-01-16T01:35:04.118Z,929.17
2019-01-16T01:35:17.125Z,929.16
2019-01-16T01:35:30.122Z,929.17
2019-01-16T01:35:42.697Z,929.17
2019-01-16T01:35:55.644Z,929.18
2019-01-16T01:36:08.592Z,929.18
2019-01-16T01:36:21.612Z,929.18
2019-01-16T01:36:34.605Z,929.19
2019-01-16T01:36:47.184Z,929.17
2019-01-16T01:37:00.417Z,929.17
2019-01-16T01:37:13.347Z,929.15
2019-01-16T01:37:26.306Z,929.17
2019-01-16T01:37:39.252Z,929.14
2019-01-16T01:37:52.220Z,929.13
2019-01-16T01:38:05.207Z,929.09
2019-01-16T01:38:18.205Z,929.18
2019-01-16T01:38:31.190Z,929.13
2019-01-16T01:38:44.135Z,929.15
2019-01-16T01:38:57.110Z,929.09
2019-01-16T01:39:10.296Z,929.1
2019-01-16T01:39:23.220Z,929.13
2019-01-16T01:39:36.281Z,929.09
2019-01-16T01:39:49.301Z,929.12
2019-01-16T01:40:02.333Z,929.08
2019-01-16T01:40:15.312Z,929.15
2019-01-16T01:40:28.315Z,929.11
2019-01-16T01:40:41.340Z,929.08
2019-01-16T01:40:54.354Z,929.12
2019-01-16T01:41:07.322Z,929.1
2019-01-16T01:41:20.277Z,929.11
2019-01-16T01:41:33.285Z,929.11
2019-01-16T01:41:46.220Z,929.1
2019-01-16T01:41:59.220Z,929.08
2019-01-16T01:42:12.261Z,929.07
2019-01-16T01:42:25.272Z,929.12
2019-01-16T01:42:38.233Z,929.11
2019-01-16T01:42:51.194Z,929.11
2019-01-16T01:43:04.213Z,929.08
2019-01-16T01:43:17.239Z,929.07
2019-01-16T01:43:30.231Z,929.09
2019-01-16T01:43:43.941Z,929.1
2019-01-16T01:43:56.903Z,929.13
2019-01-16T01:44:10.121Z,929.11
2019-01-16T01:44:23.069Z,929.1
2019-01-16T01:44:36.094Z,929.08
2019-01-16T01:44:49.123Z,929.08
2019-01-16T01:45:02.141Z,929.11
2019-01-16T01:45:15.189Z,929.1
2019-01-16T01:45:28.075Z,929.05
2019-01-16T01:45:41.107Z,929.08
2019-01-16T01:45:54.101Z,929.01
2019-01-16T01:46:07.117Z,929.03
2019-01-16T01:46:20.087Z,929.01
2019-01-16T01:46:33.044Z,929.01
2019-01-16T01:46:46.033Z,929
2019-01-16T01:46:58.939Z,929
2019-01-16T01:47:11.864Z,929.03
2019-01-16T01:47:24.777Z,929
2019-01-16T01:47:37.744Z,928.98
2019-01-16T01:47:50.688Z,928.99
2019-01-16T01:48:03.705Z,928.95
2019-01-16T01:48:16.691Z,928.99
2019-01-16T01:48:29.687Z,928.95
2019-01-16T01:48:50.041Z,928.97
2019-01-16T01:49:03.031Z,928.94
2019-01-16T01:49:16.030Z,928.96
2019-01-16T01:49:30.505Z,928.96
2019-01-16T01:49:43.416Z,928.96
2019-01-16T01:49:56.442Z,928.94
2019-01-16T01:50:09.438Z,928.94
2019-01-16T01:50:22.418Z,928.94
2019-01-16T01:50:35.395Z,928.96
2019-01-16T01:50:48.351Z,928.92
2019-01-16T01:51:01.226Z,928.92
2019-01-16T01:51:15.932Z,928.95
2019-01-16T01:51:28.950Z,928.93
2019-01-16T01:51:41.921Z,928.91
2019-01-16T01:51:54.881Z,928.92
2019-01-16T01:52:07.869Z,928.92
2019-01-16T01:52:20.857Z,928.92
2019-01-16T01:52:33.880Z,928.88
2019-01-16T01:52:46.878Z,928.9
2019-01-16T01:52:59.837Z,928.9
2019-01-16T01:53:12.819Z,928.89
2019-01-16T01:53:25.806Z,928.9
2019-01-16T01:53:38.787Z,928.88
2019-01-16T01:53:51.807Z,928.92
2019-01-16T01:54:04.791Z,928.91
2019-01-16T01:54:17.786Z,928.91
2019-01-16T01:54:30.781Z,928.92
2019-01-16T01:54:43.738Z,928.94
2019-01-16T01:54:56.666Z,928.89
2019-01-16T01:55:09.653Z,928.89
2019-01-16T01:55:22.696Z,928.91
2019-01-16T01:55:35.727Z,928.92
2019-01-16T01:55:48.748Z,928.92
2019-01-16T01:56:01.751Z,928.89
2019-01-16T01:56:14.711Z,928.9
2019-01-16T01:56:27.693Z,928.91
2019-01-16T01:56:40.714Z,928.91
2019-01-16T01:56:53.634Z,928.89
2019-01-16T01:57:06.622Z,928.91
2019-01-16T01:57:20.824Z,928.9
2019-01-16T01:57:33.826Z,928.9
2019-01-16T01:57:46.784Z,928.9
2019-01-16T01:57:59.727Z,928.87
2019-01-16T01:58:12.674Z,928.84
2019-01-16T01:58:25.652Z,928.91
2019-01-16T01:58:38.599Z,928.88
2019-01-16T01:58:51.568Z,928.88
2019-01-16T01:59:04.520Z,928.84
2019-01-16T01:59:17.495Z,928.89
2019-01-16T01:59:30.541Z,928.83
2019-01-16T01:59:43.466Z,928.81
2019-01-16T01:59:56.411Z,928.86
2019-01-16T02:00:09.572Z,928.82
2019-01-16T02:00:22.516Z,928.86
2019-01-16T02:00:35.485Z,928.84
2019-01-16T02:00:48.515Z,928.86
2019-01-16T02:01:01.547Z,928.81
2019-01-16T02:01:14.563Z,928.84
2019-01-16T02:01:27.554Z,928.84
2019-01-16T02:01:40.534Z,928.84
2019-01-16T02:01:53.476Z,928.83
2019-01-16T02:02:06.470Z,928.83
2019-01-16T02:02:19.449Z,928.82
2019-01-16T02:02:32.442Z,928.82
2019-01-16T02:02:44.919Z,928.79
2019-01-16T02:02:57.896Z,928.82
2019-01-16T02:03:10.947Z,928.81
2019-01-16T02:03:23.964Z,928.79
2019-01-16T02:03:36.910Z,928.8
2019-01-16T02:03:49.880Z,928.77
2019-01-16T02:04:02.852Z,928.77
2019-01-16T02:04:16.638Z,928.78
2019-01-16T02:04:29.639Z,928.78
2019-01-16T02:04:42.610Z,928.74
2019-01-16T02:04:55.609Z,928.69
2019-01-16T02:05:08.554Z,928.74
2019-01-16T02:05:21.575Z,928.72
2019-01-16T02:05:34.511Z,928.67
2019-01-16T02:05:47.516Z,928.64
2019-01-16T02:06:00.515Z,928.66
2019-01-16T02:06:13.543Z,928.62
2019-01-16T02:06:26.541Z,928.59
2019-01-16T02:06:39.559Z,928.6
2019-01-16T02:06:52.464Z,928.57
2019-01-16T02:07:05.381Z,928.62
2019-01-16T02:07:18.327Z,928.6
2019-01-16T02:07:31.327Z,928.57
2019-01-16T02:07:44.409Z,928.55
2019-01-16T02:07:58.839Z,928.54
2019-01-16T02:08:13.223Z,928.54
2019-01-16T02:08:26.168Z,928.5
2019-01-16T02:08:39.115Z,928.55
2019-01-16T02:08:52.112Z,928.52
2019-01-16T02:09:05.120Z,928.52
2019-01-16T02:09:18.084Z,928.52
2019-01-16T02:09:31.101Z,928.5
2019-01-16T02:09:44.062Z,928.48
2019-01-16T02:09:57.073Z,928.48
2019-01-16T02:10:10.180Z,928.51
2019-01-16T02:10:23.106Z,928.47
2019-01-16T02:10:36.067Z,928.46
2019-01-16T02:10:49.017Z,928.51
2019-01-16T02:11:02.053Z,928.5
2019-01-16T02:11:15.041Z,928.5
2019-01-16T02:11:29.481Z,928.49
2019-01-16T02:11:42.469Z,928.45
2019-01-16T02:11:55.425Z,928.48
2019-01-16T02:12:08.418Z,928.45
2019-01-16T02:12:21.385Z,928.45
2019-01-16T02:12:34.377Z,928.5
2019-01-16T02:12:47.381Z,928.47
2019-01-16T02:13:00.361Z,928.47
2019-01-16T02:13:13.317Z,928.5
2019-01-16T02:13:26.309Z,928.48
2019-01-16T02:13:39.324Z,928.46
2019-01-16T02:13:52.362Z,928.5
2019-01-16T02:14:05.367Z,928.55
2019-01-16T02:14:18.589Z,928.51
2019-01-16T02:14:31.595Z,928.54
2019-01-16T02:14:44.540Z,928.54
2019-01-16T02:14:57.557Z,928.56
2019-01-16T02:15:10.641Z,928.52
2019-01-16T02:15:25.384Z,928.53
2019-01-16T02:15:38.348Z,928.54
2019-01-16T02:15:51.327Z,928.52
2019-01-16T02:16:04.322Z,928.55
2019-01-16T02:16:17.350Z,928.58
2019-01-16T02:16:30.373Z,928.58
2019-01-16T02:16:43.361Z,928.57
2019-01-16T02:16:56.342Z,928.57
2019-01-16T02:17:09.528Z,928.53
2019-01-16T02:17:22.480Z,928.55
2019-01-16T02:17:35.439Z,928.55
2019-01-16T02:17:48.462Z,928.55
2019-01-16T02:18:01.004Z,928.57
2019-01-16T02:18:13.496Z,928.57
2019-01-16T02:18:26.495Z,928.58
2019-01-16T02:18:39.509Z,928.56
2019-01-16T02:18:57.455Z,928.57
2019-01-16T02:19:10.467Z,928.57
2019-01-16T02:19:24.385Z,928.61
2019-01-16T02:19:37.387Z,928.59
2019-01-16T02:19:49.882Z,928.61
2019-01-16T02:20:02.873Z,928.58
2019-01-16T02:20:15.824Z,928.6
2019-01-16T02:20:28.808Z,928.58
2019-01-16T02:20:41.807Z,928.63
2019-01-16T02:20:54.747Z,928.6
2019-01-16T02:21:07.675Z,928.61
2019-01-16T02:21:20.671Z,928.62
2019-01-16T02:21:34.153Z,928.61
2019-01-16T02:21:47.173Z,928.61
2019-01-16T02:22:00.175Z,928.59
2019-01-16T02:22:13.168Z,928.6
2019-01-16T02:22:26.193Z,928.58
2019-01-16T02:22:39.115Z,928.61
2019-01-16T02:22:52.152Z,928.6
2019-01-16T02:23:05.184Z,928.58
2019-01-16T02:23:18.120Z,928.59
2019-01-16T02:23:31.119Z,928.57
2019-01-16T02:23:44.138Z,928.52
2019-01-16T02:23:57.333Z,928.55
2019-01-16T02:24:10.365Z,928.55
2019-01-16T02:24:23.381Z,928.59
2019-01-16T02:24:36.428Z,928.53
2019-01-16T02:24:49.408Z,928.53
2019-01-16T02:25:02.345Z,928.55
2019-01-16T02:25:15.511Z,928.52
2019-01-16T02:25:28.474Z,928.5
2019-01-16T02:25:41.469Z,928.52
2019-01-16T02:25:54.484Z,928.44
2019-01-16T02:26:07.534Z,928.47
2019-01-16T02:26:20.761Z,928.43
2019-01-16T02:26:33.709Z,928.43
2019-01-16T02:26:46.895Z,928.43
2019-01-16T02:26:59.891Z,928.45
2019-01-16T02:27:12.907Z,928.41
2019-01-16T02:27:25.889Z,928.39
2019-01-16T02:27:38.897Z,928.41
2019-01-16T02:27:51.912Z,928.34
2019-01-16T02:28:04.944Z,928.36
2019-01-16T02:28:17.975Z,928.35
2019-01-16T02:28:30.925Z,928.33
2019-01-16T02:28:43.911Z,928.33
2019-01-16T02:28:56.931Z,928.33
2019-01-16T02:29:09.884Z,928.3
2019-01-16T02:29:22.915Z,928.29
2019-01-16T02:29:35.899Z,928.29
2019-01-16T02:29:48.925Z,928.29
2019-01-16T02:30:01.877Z,928.27
2019-01-16T02:30:14.895Z,928.26
2019-01-16T02:30:27.909Z,928.23
2019-01-16T02:30:40.822Z,928.25
2019-01-16T02:30:53.833Z,928.26
2019-01-16T02:31:06.795Z,928.23
2019-01-16T02:31:19.756Z,928.18
2019-01-16T02:31:32.773Z,928.18
2019-01-16T02:31:45.263Z,928.18
2019-01-16T02:31:58.270Z,928.19
2019-01-16T02:32:11.221Z,928.19
2019-01-16T02:32:24.159Z,928.16
2019-01-16T02:32:37.174Z,928.15
2019-01-16T02:32:50.098Z,928.12
2019-01-16T02:33:03.098Z,928.13
2019-01-16T02:33:16.035Z,928.11
2019-01-16T02:33:28.590Z,928.13
2019-01-16T02:33:41.712Z,928.1
2019-01-16T02:33:54.683Z,928.13
2019-01-16T02:34:07.693Z,928.13
2019-01-16T02:34:20.746Z,928.12
2019-01-16T02:34:34.451Z,928.11
2019-01-16T02:34:47.641Z,928.1
2019-01-16T02:35:00.629Z,928.1
2019-01-16T02:35:13.152Z,928.11
2019-01-16T02:35:26.240Z,928.12
2019-01-16T02:35:39.283Z,928.1
2019-01-16T02:35:52.309Z,928.12
2019-01-16T02:36:05.363Z,928.13
2019-01-16T02:36:18.417Z,928.12
2019-01-16T02:36:31.429Z,928.09
2019-01-16T02:36:44.466Z,928.11
2019-01-16T02:36:57.432Z,928.16
2019-01-16T02:37:10.494Z,928.21
2019-01-16T02:37:23.577Z,928.18
2019-01-16T02:37:36.570Z,928.17
2019-01-16T02:37:49.556Z,928.2
2019-01-16T02:38:02.578Z,928.22
2019-01-16T02:38:15.116Z,928.22
2019-01-16T02:38:27.671Z,928.24
2019-01-16T02:38:40.737Z,928.23
2019-01-16T02:38:53.782Z,928.22
2019-01-16T02:39:06.727Z,928.23
2019-01-16T02:39:19.731Z,928.25
2019-01-16T02:39:32.775Z,928.24
2019-01-16T02:39:45.812Z,928.27
2019-01-16T02:39:58.837Z,928.25
2019-01-16T02:40:11.886Z,928.3
2019-01-16T02:40:24.894Z,928.32
2019-01-16T02:40:37.868Z,928.3
2019-01-16T02:40:50.848Z,928.32
2019-01-16T02:41:04.863Z,928.38
2019-01-16T02:41:17.912Z,928.3
2019-01-16T02:41:30.949Z,928.33
2019-01-16T02:41:43.919Z,928.33
2019-01-16T02:41:56.956Z,928.35
2019-01-16T02:42:09.998Z,928.33
2019-01-16T02:42:24.415Z,928.38
2019-01-16T02:42:37.410Z,928.36
2019-01-16T02:42:50.439Z,928.35
2019-01-16T02:43:03.453Z,928.37
2019-01-16T02:43:16.473Z,928.37
2019-01-16T02:43:29.470Z,928.38